Max, MN (56659)

1:11 AM CST on December 18, 2014 (GMT -0600)
Williams Narrows Resort / Bobbers Bar | Change Station
CLOSE
Current Station
Personal Weather Station
Location: Deer River, MN
Elevation: 1306 ft
Nearby Weather Stations

Elev 1306 ft 47.51 °N, 94.06 °W | Updated 5 seconds ago

Partly Cloudy
Partly Cloudy
3.0 °F
Feels Like 3 °F
N
0.0
Wind Variable Wind from ENE
Gusts 0.0 mph

Today
High -- | Low -- °F
--% Chance of Precip.
Yesterday
High -- | Low -- °F
Precip. -- in
7:59 AM 4:25 PM
Waning Crescent, 16% visible
Pressure 30.30 in
Visibility 10.0 miles
Clouds Clear
Windchill 3 °F
Dew Point -5 °F
Humidity 67%
Rainfall 0.00 in
Snow Depth Not available.
UV 0 out of 12
Pollen .10 out of 12
Air Quality Not available.
Flu Activity Not available.
METAR KFOZ 180653Z AUTO 00000KT 10SM CLR M17/M19 A3030 RMK AO2

More Conditions Fewer Conditions

Pressure 30.30 in
Visibility 10.0 miles
Clouds Clear
Windchill 3 °F
Dew Point -5 °F
Humidity 67%
Rainfall 0.00 in
Snow Depth Not available.
UV 0 out of 12
Pollen .10 out of 12
Air Quality Not available.
Flu Activity Not available.
METAR KFOZ 180653Z AUTO 00000KT 10SM CLR M17/M19 A3030 RMK AO2

More Conditions Fewer Conditions

10-Day Weather Forecast

Almanac

Astronomy

Dec. 18, 2014 Rise Set
Actual Time
Civil Twilight
Nautical Twilight
Astronomical Twilight
Moon
Length of Visible Light
Length of Day
Tomorrow will be .
, % of the Moon is Illuminated

Today's Extremes

State Highs State Lows

Community

WunderPhotos

Upload Photos

1,778,897 photos uploaded!

WunderBlogs® & News

Nearby

Air Quality

  Air Quality AQ Index Pollutant
Not available.

Snow Depth

Station Depth Elevation

Earthquake Activity

City Distance Mag. Time & Date
Minimum magnitude displayed is 2.5.

Coastal Water Temperatures

Place Temperature

Nearby Weather Stations